createdAt,value
2023-05-08T00:04:20.830Z,100.00
2023-05-08T00:09:23.710Z,100.00
2023-05-08T00:14:26.476Z,100.00
2023-05-08T00:19:28.739Z,100.00
2023-05-08T00:24:31.387Z,100.00
2023-05-08T00:29:34.639Z,100.00
2023-05-08T00:34:37.412Z,100.00
2023-05-08T00:39:40.087Z,100.00
2023-05-08T00:44:42.791Z,100.00
2023-05-08T00:49:46.058Z,100.00
2023-05-08T00:54:49.492Z,100.00
2023-05-08T00:59:54.283Z,100.00
2023-05-08T01:04:57.249Z,100.00
2023-05-08T01:09:59.505Z,100.00
2023-05-08T01:15:06.859Z,100.00
2023-05-08T01:20:09.582Z,100.00
2023-05-08T01:26:00.249Z,100.00
2023-05-08T01:31:25.673Z,100.00
2023-05-08T01:36:37.383Z,100.00
2023-05-08T01:41:42.486Z,100.00
2023-05-08T01:46:49.793Z,100.00
2023-05-08T01:52:28.110Z,100.00
2023-05-08T01:57:35.111Z,100.00
2023-05-08T02:02:38.415Z,100.00
2023-05-08T02:07:47.021Z,100.00
2023-05-08T02:12:50.492Z,100.00
2023-05-08T02:17:55.500Z,100.00
2023-05-08T02:22:58.420Z,100.00
2023-05-08T02:28:02.212Z,100.00
2023-05-08T02:33:08.621Z,100.00
2023-05-08T02:38:14.157Z,100.00
2023-05-08T02:43:17.112Z,100.00
2023-05-08T02:48:38.491Z,100.00
2023-05-08T02:53:53.784Z,100.00
2023-05-08T02:59:21.064Z,100.00
2023-05-08T03:04:30.193Z,100.00
2023-05-08T03:09:43.597Z,100.00
2023-05-08T03:14:55.779Z,100.00
2023-05-08T03:20:03.425Z,100.00
2023-05-08T03:25:09.515Z,100.00
2023-05-08T03:30:15.684Z,100.00
2023-05-08T03:35:22.610Z,100.00
2023-05-08T03:40:25.587Z,100.00
2023-05-08T03:45:29.123Z,100.00
2023-05-08T03:50:31.959Z,100.00
2023-05-08T03:55:34.772Z,100.00
2023-05-08T04:00:51.854Z,100.00
2023-05-08T04:06:03.898Z,100.00
2023-05-08T04:11:15.438Z,100.00
2023-05-08T04:16:25.343Z,100.00
2023-05-08T04:21:31.763Z,100.00
2023-05-08T04:26:35.304Z,100.00
2023-05-08T04:31:40.563Z,100.00
2023-05-08T04:36:43.593Z,100.00
2023-05-08T04:41:48.226Z,100.00
2023-05-08T04:46:51.220Z,100.00
2023-05-08T04:51:54.036Z,100.00
2023-05-08T04:56:59.359Z,100.00
2023-05-08T05:02:02.904Z,100.00
2023-05-08T05:07:06.998Z,100.00
2023-05-08T05:12:10.092Z,99.30
2023-05-08T05:17:12.806Z,91.00
2023-05-08T05:22:15.839Z,89.29
2023-05-08T05:27:21.129Z,89.39
2023-05-08T05:32:26.843Z,88.40
2023-05-08T05:37:29.539Z,88.90
2023-05-08T05:42:32.156Z,86.35
2023-05-08T05:47:34.869Z,81.93
2023-05-08T05:52:39.587Z,76.68
2023-05-08T05:57:42.200Z,70.87
2023-05-08T06:02:45.805Z,73.86
2023-05-08T06:07:51.304Z,71.87
2023-05-08T06:12:53.816Z,66.11
2023-05-08T06:17:57.755Z,67.41
2023-05-08T06:23:00.461Z,63.03
2023-05-08T06:28:04.419Z,56.49
2023-05-08T06:33:07.066Z,51.78
2023-05-08T06:38:09.581Z,48.98
2023-05-08T06:43:13.154Z,44.88
2023-05-08T06:48:16.006Z,48.88
2023-05-08T06:53:18.548Z,44.15
2023-05-08T06:58:20.835Z,35.65
2023-05-08T07:03:23.438Z,37.18
2023-05-08T07:08:26.194Z,34.99
2023-05-08T07:13:29.090Z,37.15
2023-05-08T07:18:31.756Z,35.47
2023-05-08T07:23:34.373Z,35.41
2023-05-08T07:28:37.101Z,37.21
2023-05-08T07:33:39.823Z,37.64
2023-05-08T07:38:42.584Z,36.46
2023-05-08T07:43:45.610Z,33.32
2023-05-08T07:48:48.310Z,30.56
2023-05-08T07:53:51.458Z,28.47
2023-05-08T07:58:54.280Z,26.95
2023-05-08T08:03:56.953Z,26.86
2023-05-08T08:08:59.696Z,27.07
2023-05-08T08:14:02.477Z,27.04
2023-05-08T08:19:04.709Z,26.05
2023-05-08T08:24:07.831Z,26.50
2023-05-08T08:29:10.306Z,26.67
2023-05-08T08:34:13.036Z,31.05
2023-05-08T08:39:15.523Z,27.93
2023-05-08T08:44:18.110Z,28.25
2023-05-08T08:49:27.306Z,27.50
2023-05-08T08:54:34.877Z,27.32
2023-05-08T08:59:41.101Z,27.98
2023-05-08T09:04:44.488Z,29.46
2023-05-08T09:09:47.326Z,28.53
2023-05-08T09:14:51.249Z,27.53
2023-05-08T09:19:54.602Z,26.80
2023-05-08T09:24:59.462Z,25.58
2023-05-08T09:30:06.801Z,27.80
2023-05-08T09:35:11.465Z,28.85
2023-05-08T09:40:22.666Z,28.99
2023-05-08T09:45:33.046Z,31.12
2023-05-08T09:50:35.764Z,32.94
2023-05-08T09:55:49.505Z,33.89
2023-05-08T10:00:52.311Z,35.41
2023-05-08T10:05:55.026Z,34.04
2023-05-08T10:11:15.144Z,34.18
2023-05-08T10:16:19.064Z,35.25
2023-05-08T10:21:21.874Z,35.60
2023-05-08T10:26:36.867Z,34.98
2023-05-08T10:31:44.267Z,31.06
2023-05-08T10:36:48.687Z,33.15
2023-05-08T10:41:51.803Z,34.38
2023-05-08T10:47:01.284Z,35.92
2023-05-08T10:52:16.996Z,33.68
2023-05-08T10:57:19.219Z,34.69
2023-05-08T11:02:37.391Z,38.24
2023-05-08T11:07:59.753Z,39.26
2023-05-08T11:13:03.053Z,40.25
2023-05-08T11:18:11.712Z,41.47
2023-05-08T11:23:43.764Z,41.54
2023-05-08T11:28:54.894Z,40.76
2023-05-08T11:33:57.707Z,39.40
2023-05-08T11:39:08.152Z,38.39
2023-05-08T11:44:20.951Z,37.05
2023-05-08T11:49:29.586Z,36.03
2023-05-08T11:54:32.992Z,36.85
2023-05-08T11:59:42.164Z,37.81
2023-05-08T12:04:48.188Z,38.08
2023-05-08T12:09:51.772Z,39.68
2023-05-08T12:14:54.495Z,43.70
2023-05-08T12:19:57.238Z,45.44
2023-05-08T12:24:59.831Z,46.70
2023-05-08T12:30:07.853Z,47.09
2023-05-08T12:35:14.439Z,48.27
2023-05-08T12:40:28.249Z,49.76
2023-05-08T12:45:34.136Z,50.58
2023-05-08T12:50:45.521Z,51.64
2023-05-08T12:55:57.373Z,53.80
2023-05-08T13:01:13.803Z,75.28
2023-05-08T13:06:22.672Z,90.55
2023-05-08T13:11:33.591Z,99.78
2023-05-08T13:16:43.439Z,100.00
2023-05-08T13:21:48.001Z,100.00
2023-05-08T13:26:50.671Z,100.00
2023-05-08T13:31:53.472Z,100.00
2023-05-08T13:36:56.491Z,100.00
2023-05-08T13:41:59.083Z,100.00
2023-05-08T13:47:01.720Z,100.00
2023-05-08T13:52:04.414Z,100.00
2023-05-08T13:57:08.402Z,100.00
2023-05-08T14:02:11.054Z,100.00
2023-05-08T14:07:13.897Z,100.00
2023-05-08T14:12:16.681Z,100.00
2023-05-08T14:17:18.838Z,100.00
2023-05-08T14:22:21.346Z,100.00
2023-05-08T14:27:23.843Z,100.00
2023-05-08T14:32:26.122Z,100.00
2023-05-08T14:37:28.439Z,100.00
2023-05-08T14:42:31.033Z,100.00
2023-05-08T14:47:34.240Z,100.00
2023-05-08T14:52:36.567Z,100.00
2023-05-08T14:57:39.152Z,100.00
2023-05-08T15:02:42.036Z,100.00
2023-05-08T15:07:44.942Z,100.00
2023-05-08T15:12:47.666Z,100.00
2023-05-08T15:17:50.305Z,100.00
2023-05-08T15:22:54.476Z,100.00
2023-05-08T15:27:58.293Z,100.00
2023-05-08T15:33:00.916Z,100.00
2023-05-08T15:38:06.185Z,100.00
2023-05-08T15:43:08.375Z,100.00
2023-05-08T15:48:10.616Z,100.00
2023-05-08T15:53:13.369Z,100.00
2023-05-08T15:58:15.908Z,100.00
2023-05-08T16:03:18.786Z,100.00
2023-05-08T16:08:21.897Z,100.00
2023-05-08T16:13:24.086Z,100.00
2023-05-08T16:18:26.687Z,100.00
2023-05-08T16:23:29.182Z,100.00
2023-05-08T16:28:31.891Z,100.00
2023-05-08T16:33:34.635Z,100.00
2023-05-08T16:38:36.848Z,100.00
2023-05-08T16:43:39.636Z,100.00
2023-05-08T16:48:42.771Z,100.00
2023-05-08T16:53:45.480Z,100.00
2023-05-08T16:58:47.976Z,100.00
2023-05-08T17:03:50.555Z,100.00
2023-05-08T17:08:53.160Z,100.00
2023-05-08T17:13:55.324Z,100.00
2023-05-08T17:18:59.902Z,100.00
2023-05-08T17:24:02.939Z,100.00
2023-05-08T17:29:05.656Z,100.00
2023-05-08T17:34:08.381Z,100.00
2023-05-08T17:39:11.736Z,100.00
2023-05-08T17:44:14.595Z,100.00
2023-05-08T17:49:19.364Z,100.00
2023-05-08T17:54:22.220Z,100.00
2023-05-08T17:59:24.829Z,100.00
2023-05-08T18:04:27.470Z,100.00
2023-05-08T18:09:30.216Z,100.00
2023-05-08T18:14:32.980Z,100.00
2023-05-08T18:19:35.525Z,100.00
2023-05-08T18:24:37.641Z,100.00
2023-05-08T18:29:40.462Z,100.00
2023-05-08T18:34:43.220Z,100.00
2023-05-08T18:39:45.323Z,100.00
2023-05-08T18:44:48.047Z,100.00
2023-05-08T18:49:52.702Z,100.00
2023-05-08T18:54:55.220Z,100.00
2023-05-08T18:59:57.490Z,100.00
2023-05-08T19:05:01.122Z,100.00
2023-05-08T19:10:03.527Z,100.00
2023-05-08T19:15:14.239Z,100.00
2023-05-08T19:20:16.870Z,100.00
2023-05-08T19:25:19.785Z,100.00
2023-05-08T19:30:22.448Z,100.00
2023-05-08T19:35:25.278Z,100.00
2023-05-08T19:40:51.967Z,100.00
2023-05-08T19:45:57.557Z,100.00
2023-05-08T19:51:06.412Z,100.00
2023-05-08T19:56:09.068Z,100.00
2023-05-08T20:01:11.870Z,100.00
2023-05-08T20:06:14.478Z,100.00
2023-05-08T20:11:16.828Z,100.00
2023-05-08T20:16:19.591Z,100.00
2023-05-08T20:21:22.243Z,100.00
2023-05-08T20:26:27.210Z,100.00
2023-05-08T20:31:30.925Z,100.00
2023-05-08T20:36:36.921Z,100.00
2023-05-08T20:41:39.755Z,100.00
2023-05-08T20:46:42.401Z,100.00
2023-05-08T20:51:44.951Z,100.00
2023-05-08T20:56:47.160Z,100.00
2023-05-08T21:01:50.377Z,100.00
2023-05-08T21:06:53.018Z,100.00
2023-05-08T21:11:55.647Z,100.00
2023-05-08T21:16:58.230Z,100.00
2023-05-08T21:22:00.980Z,100.00
2023-05-08T21:27:03.281Z,100.00
2023-05-08T21:32:08.730Z,100.00
2023-05-08T21:37:12.897Z,100.00
2023-05-08T21:42:16.015Z,100.00
2023-05-08T21:47:19.580Z,100.00
2023-05-08T21:52:22.997Z,100.00
2023-05-08T21:57:25.419Z,100.00
2023-05-08T22:02:28.513Z,100.00
2023-05-08T22:07:30.809Z,100.00
2023-05-08T22:12:33.446Z,100.00
2023-05-08T22:17:36.427Z,100.00
2023-05-08T22:22:39.275Z,100.00
2023-05-08T22:27:42.202Z,100.00
2023-05-08T22:32:53.507Z,100.00
2023-05-08T22:37:58.382Z,100.00
2023-05-08T22:43:01.403Z,100.00
2023-05-08T22:48:04.601Z,100.00
2023-05-08T22:53:08.510Z,100.00
2023-05-08T22:58:10.779Z,100.00
2023-05-08T23:03:13.896Z,100.00
2023-05-08T23:08:16.276Z,100.00
2023-05-08T23:13:18.901Z,100.00
2023-05-08T23:18:21.520Z,100.00
2023-05-08T23:23:24.235Z,100.00
2023-05-08T23:28:26.471Z,100.00
2023-05-08T23:33:29.137Z,100.00
2023-05-08T23:38:31.798Z,100.00
2023-05-08T23:43:34.291Z,100.00
2023-05-08T23:48:36.992Z,100.00
2023-05-08T23:53:39.083Z,100.00
2023-05-08T23:58:41.945Z,100.00
